Terminal Aerodrome Forecast
Issued by NWS Glasgow, MT

Home | Current Version | Previous Version | Text Only | Print | Product List | Glossary On
Versions: 1 2 3 4 5 6 7 8 9 10 11 12 13 14 15 16 17 18 19 20 21
000
FTUS45 KGGW 222300
TAFGGW
TAF
KGGW 222322Z 2300/2324 08020KT P6SM VCSH SCT025 BKN060
     FM230300 07020G28KT 3SM RA BR OVC025
     FM231400 07025G33KT 2SM RA BR OVC007
     FM232100 05025KT 4SM -RA BR OVC004=

USA.gov is the U.S. government's official web portal to all federal, state and local government web resources and services.